AirNav   Air Wisconsin Up To $57,000 Bonus
 
 1240 users online  

33GA Hudson River Landing Airport
Carnesville, Georgia, USA

GOING TO CARNESVILLE?


FAA INFORMATION EFFECTIVE 04 NOVEMBER 2021

Location

FAA Identifier: 33GA
Lat/Long: 34-15-36.0000N 083-17-12.0000W
34-15.600000N 083-17.200000W
34.2600000,-83.2866667
(estimated)
Elevation: 665 ft. / 203 m (estimated)
Variation: 04W (1995)
From city: 7 miles NE of CARNESVILLE, GA
Time zone: UTC -5 (UTC -4 during Daylight Saving Time)
Zip code: 30662

Airport Operations

Airport use: Private use. Permission required prior to landing
Activation date: 07/1995
Control tower: no
ARTCC: ATLANTA CENTER
FSS: MACON FLIGHT SERVICE STATION
Attendance: UNATTND
UNATTENDED
Wind indicator: yes
Segmented circle: no

Airport Communications

WX AWOS-3PT at 18A (9 nm NE): 118.625 (706-245-1097)
WX AWOS-3PT at JCA (15 nm W): 118.125 (706-387-6477)
WX ASOS at AHN (19 nm S): 132.875 (706-613-7373)
WX AWOS-3 at AJR (20 nm NW): 119.175 (706-778-3675)
WX AWOS-3 at TOC (20 nm N): 119.625 (706-297-7473)

Nearby radio navigation aids

VOR radial/distance  VOR name  Freq  Var
AHNr006/18.8ATHENS VOR/DME109.6000E
ODFr179/26.2FOOTHILLS VOR/DME113.4000E
ELWr249/26.6ELECTRIC CITY VORTAC108.6000E

 
NDB name  Hdg/Dist  Freq  Var  ID
BARROW COUNTY043/24.640405WBMW -... -- .--
FLOWERY BRANCH087/30.936503WFKV ..-. -.- ...-

Airport Services

Runway Information

Runway 1/19

Dimensions: 2000 x 50 ft. / 610 x 15 m
Surface: turf
RUNWAY 1  RUNWAY 19
Traffic pattern: leftleft
Obstructions: none50 ft. trees

Airport Ownership and Management from official FAA records

Ownership: Privately-owned
NORTH HALF OF STRIP OWNED BY RAYMOND E. LINVILLE AT ADDRESS ABV. SOUTH HALF OF STRIP OWNED BY WILLIAM & BONNIE FRITZ AT ADDRESS ABV.
Owner: WILLIAM J & BONNIE J FRITZ
795 CAPE ROAD
CARNESVILLE, GA 30521
Phone 706-335-9423
Manager: WILLIAM J FRITZ
795 CAPE ROAD
CARNESVILLE, GA 30521
Phone 706-335-9423
OR 404-219-0378.

Airport Operational Statistics

Aircraft based on the field: 4
Single engine airplanes: 4
    
Aircraft operations: 50/year *
100% local general aviation
* for 12-month period ending 26 June 2020

Additional Remarks

FOR CD CTC ATLANTA APCH AT 678-364-6131, WHEN APCH CLSD CTC ATLANTA ARTCC AT 770-210-7692.

Instrument Procedures

There are no published instrument procedures at 33GA.

Some nearby airports with instrument procedures:

18A - Franklin-Hart Airport (9 nm NE)
KJCA - Jackson County Airport (15 nm W)
KAHN - Athens/Ben Epps Airport (19 nm S)
KAJR - Habersham County Airport (20 nm NW)
KTOC - Toccoa Airport-RG Letourneau Field (20 nm N)
 
Loc | Ops | Rwys | IFR | FBO | Links
Com | Nav | Svcs | Stats | Notes
Area around 33GA (Hudson River Landing Airport)
 
Road maps at: MapQuest Bing Google
 
Aerial photo
No photo
 
Sectional chart

 
Airport distance calculator
Flying to Hudson River Landing Airport? Find the distance to fly.

From to 33GA

Sunrise and sunset
Times for 28-Nov-2021
 Local
(UTC-5)
 Zulu
(UTC)
Morning civil twilight06:5211:52
Sunrise07:1912:19
Sunset17:2322:23
Evening civil twilight17:5022:50

Current date and time
Zulu (UTC)  28-Nov-2021 20:57:45
Local (UTC-5)  28-Nov-2021 15:57:45
 
METAR
K18A 
9nm NE 
282030Z AUTO 25006KT 10SM CLR 16/00 A2991 RMK AO2 T01620002
KJCA 
15nm W 
282030Z AUTO 25008KT 10SM CLR 16/00 A2993 RMK AO2 T01560005
KAHN 
19nm S 
282051Z 23005KT 10SM CLR 15/01 A2992 RMK AO2 SLP134 T01500006 56012
KAJR 
20nm NW 
282035Z AUTO 29011G19KT 10SM CLR 17/M03 A2991 RMK AO2 T01691031
KTOC 
20nm N 
282035Z AUTO 28007KT 10SM CLR 18/M03 A2990 RMK AO2 T01821026
TAF
KAHN 
19nm S 
281738Z 2818/2918 28006KT P6SM BKN250 FM290000 29006KT P6SM FEW250 FM291500 02004KT P6SM SKC FM291700 33004KT P6SM SKC
NOTAMs
Click for the latest NOTAMs
NOTAMs are issued by the DoD/FAA and will open in a separate window not controlled by AirNav.

 

 
 

Would you like to see your business listed on this page?

 If your business provides an interesting product or service to pilots, flight crews, aircraft, or users of the Hudson River Landing Airport, you should consider listing it here.  To start the listing process, click on the button below
 
Add a business
 

Other Pages about Hudson River Landing Airport

Update a link
 
Copyright © AirNav, LLC. All rights reserved. Privacy Policy  Contact